createdAt,value
2024-01-26T00:01:28.309Z,13.95
2024-01-26T00:03:55.115Z,13.85
2024-01-26T00:06:21.906Z,14.73
2024-01-26T00:08:48.424Z,13.40
2024-01-26T00:11:15.808Z,13.27
2024-01-26T00:13:42.414Z,14.40
2024-01-26T00:16:09.532Z,12.65
2024-01-26T00:18:37.085Z,12.18
2024-01-26T00:21:04.955Z,13.73
2024-01-26T00:23:31.726Z,13.40
2024-01-26T00:25:58.396Z,12.98
2024-01-26T00:28:25.034Z,13.32
2024-01-26T00:30:51.576Z,13.23
2024-01-26T00:33:18.848Z,12.20
2024-01-26T00:35:45.488Z,12.43
2024-01-26T00:38:12.016Z,12.43
2024-01-26T00:40:38.452Z,10.85
2024-01-26T00:43:05.072Z,11.68
2024-01-26T00:45:31.743Z,11.65
2024-01-26T00:47:58.347Z,10.93
2024-01-26T00:50:26.112Z,10.68
2024-01-26T00:52:53.186Z,9.68
2024-01-26T00:55:19.698Z,11.50
2024-01-26T00:57:46.300Z,11.18
2024-01-26T01:00:13.789Z,11.57
2024-01-26T01:02:40.305Z,10.27
2024-01-26T01:05:08.101Z,10.05
2024-01-26T01:07:34.693Z,10.38
2024-01-26T01:10:01.485Z,10.48
2024-01-26T01:12:27.995Z,10.35
2024-01-26T01:14:54.471Z,11.30
2024-01-26T01:17:20.961Z,9.88
2024-01-26T01:19:47.573Z,9.85
2024-01-26T01:22:14.085Z,10.02
2024-01-26T01:24:40.549Z,10.50
2024-01-26T01:27:07.156Z,9.77
2024-01-26T01:29:33.726Z,8.23
2024-01-26T01:32:00.248Z,9.60
2024-01-26T01:34:26.901Z,9.27
2024-01-26T01:36:53.426Z,10.40
2024-01-26T01:39:19.979Z,10.85
2024-01-26T01:41:50.149Z,10.73
2024-01-26T01:44:16.658Z,9.98
2024-01-26T01:46:43.212Z,10.95
2024-01-26T01:49:09.840Z,10.48
2024-01-26T01:51:36.691Z,9.80
2024-01-26T01:54:04.019Z,10.50
2024-01-26T01:56:30.655Z,10.00
2024-01-26T01:58:59.901Z,10.13
2024-01-26T02:01:26.763Z,10.77
2024-01-26T02:03:53.337Z,10.85
2024-01-26T02:06:20.204Z,10.23
2024-01-26T02:08:46.814Z,10.10
2024-01-26T02:11:13.379Z,10.43
2024-01-26T02:13:39.830Z,9.50
2024-01-26T02:16:06.403Z,9.77
2024-01-26T02:18:34.055Z,8.75
2024-01-26T02:21:00.632Z,9.50
2024-01-26T02:23:27.215Z,9.43
2024-01-26T02:25:53.799Z,8.80
2024-01-26T02:28:20.468Z,8.50
2024-01-26T02:30:47.153Z,9.48
2024-01-26T02:33:13.935Z,8.48
2024-01-26T02:35:40.551Z,8.70
2024-01-26T02:38:07.089Z,8.57
2024-01-26T02:40:33.785Z,8.10
2024-01-26T02:43:00.292Z,8.40
2024-01-26T02:45:27.367Z,8.68
2024-01-26T02:47:54.968Z,7.78
2024-01-26T02:50:21.623Z,7.47
2024-01-26T02:52:48.131Z,8.18
2024-01-26T02:55:14.604Z,7.22
2024-01-26T02:57:41.077Z,7.85
2024-01-26T03:00:09.001Z,8.05
2024-01-26T03:02:35.871Z,8.25
2024-01-26T03:05:02.426Z,8.02
2024-01-26T03:07:28.916Z,7.63
2024-01-26T03:09:55.406Z,8.45
2024-01-26T03:12:21.965Z,8.55
2024-01-26T03:14:48.670Z,9.02
2024-01-26T03:17:15.170Z,9.30
2024-01-26T03:19:41.687Z,7.45
2024-01-26T03:22:08.272Z,8.77
2024-01-26T03:24:34.886Z,9.13
2024-01-26T03:27:01.493Z,8.95
2024-01-26T03:29:28.078Z,9.23
2024-01-26T03:31:54.692Z,9.60
2024-01-26T03:34:21.303Z,9.75
2024-01-26T03:36:48.460Z,10.60
2024-01-26T03:39:15.125Z,10.32
2024-01-26T03:41:42.226Z,10.32
2024-01-26T03:44:09.055Z,9.82
2024-01-26T03:46:35.530Z,11.10
2024-01-26T03:49:04.881Z,11.95
2024-01-26T03:51:31.551Z,11.10
2024-01-26T03:54:00.644Z,10.52
2024-01-26T03:56:27.360Z,10.95
2024-01-26T03:58:54.873Z,11.45
2024-01-26T04:01:21.932Z,11.90
2024-01-26T04:03:49.256Z,11.35
2024-01-26T04:06:16.038Z,11.38
2024-01-26T04:08:42.640Z,12.60
2024-01-26T04:11:09.217Z,13.15
2024-01-26T04:13:35.705Z,12.23
2024-01-26T04:16:02.195Z,12.30
2024-01-26T04:18:28.821Z,11.93
2024-01-26T04:20:55.479Z,12.35
2024-01-26T04:23:22.022Z,11.23
2024-01-26T04:25:48.778Z,12.32
2024-01-26T04:28:15.440Z,12.02
2024-01-26T04:30:44.430Z,11.32
2024-01-26T04:33:11.392Z,11.02
2024-01-26T04:35:38.085Z,11.02
2024-01-26T04:38:06.883Z,11.18
2024-01-26T04:40:34.637Z,13.10
2024-01-26T04:43:01.379Z,12.95
2024-01-26T04:45:27.899Z,13.98
2024-01-26T04:47:54.454Z,13.13
2024-01-26T04:50:20.928Z,14.32
2024-01-26T04:52:47.425Z,13.13
2024-01-26T04:55:13.989Z,13.35
2024-01-26T04:57:40.485Z,11.80
2024-01-26T05:00:09.088Z,13.48
2024-01-26T05:02:35.728Z,13.95
2024-01-26T05:05:02.301Z,13.23
2024-01-26T05:07:28.860Z,11.55
2024-01-26T05:09:55.362Z,15.15
2024-01-26T05:12:22.028Z,12.60
2024-01-26T05:14:48.655Z,12.65
2024-01-26T05:17:15.104Z,11.95
2024-01-26T05:19:41.644Z,13.43
2024-01-26T05:22:08.191Z,13.35
2024-01-26T05:24:34.647Z,13.07
2024-01-26T05:27:01.234Z,14.57
2024-01-26T05:29:27.915Z,14.93
2024-01-26T05:31:54.466Z,13.80
2024-01-26T05:34:21.285Z,12.20
2024-01-26T05:36:47.932Z,12.77
2024-01-26T05:39:14.866Z,13.02
2024-01-26T05:41:41.695Z,13.07
2024-01-26T05:44:08.212Z,12.50
2024-01-26T05:46:34.727Z,10.55
2024-01-26T05:49:02.634Z,11.73
2024-01-26T05:51:29.626Z,11.57
2024-01-26T05:53:56.256Z,11.52
2024-01-26T05:56:25.773Z,11.13
2024-01-26T05:58:53.706Z,11.20
2024-01-26T06:01:20.272Z,12.10
2024-01-26T06:03:46.871Z,11.30
2024-01-26T06:06:13.463Z,10.90
2024-01-26T06:08:45.407Z,9.38
2024-01-26T06:11:12.293Z,11.63
2024-01-26T06:13:38.822Z,10.75
2024-01-26T06:16:06.092Z,9.57
2024-01-26T06:18:32.694Z,10.15
2024-01-26T06:20:59.366Z,10.65
2024-01-26T06:23:26.081Z,5.47
2024-01-26T06:25:53.024Z,7.03
2024-01-26T06:28:19.521Z,8.77
2024-01-26T06:30:46.124Z,7.53
2024-01-26T06:33:12.792Z,8.10
2024-01-26T06:35:39.491Z,6.97
2024-01-26T06:38:06.017Z,6.53
2024-01-26T06:40:32.600Z,8.43
2024-01-26T06:43:03.017Z,7.85
2024-01-26T06:45:29.501Z,8.70
2024-01-26T06:47:56.203Z,8.85
2024-01-26T06:50:22.779Z,7.50
2024-01-26T06:52:49.334Z,8.80
2024-01-26T06:55:15.926Z,9.15
2024-01-26T06:57:42.586Z,7.90
2024-01-26T07:00:10.432Z,10.00
2024-01-26T07:02:38.174Z,6.93
2024-01-26T07:05:05.232Z,9.35
2024-01-26T07:07:31.661Z,9.75
2024-01-26T07:09:58.185Z,9.38
2024-01-26T07:12:24.692Z,9.88
2024-01-26T07:14:51.205Z,8.45
2024-01-26T07:17:18.284Z,9.20
2024-01-26T07:19:44.825Z,9.75
2024-01-26T07:22:11.262Z,9.95
2024-01-26T07:24:37.819Z,9.95
2024-01-26T07:27:04.383Z,7.85
2024-01-26T07:29:30.896Z,9.65
2024-01-26T07:31:57.454Z,8.55
2024-01-26T07:34:24.037Z,10.65
2024-01-26T07:36:50.612Z,9.88
2024-01-26T07:39:17.248Z,10.32
2024-01-26T07:41:43.803Z,8.25
2024-01-26T07:44:10.356Z,8.13
2024-01-26T07:46:39.794Z,9.10
2024-01-26T07:49:06.704Z,10.55
2024-01-26T07:51:33.397Z,9.63
2024-01-26T07:53:59.997Z,9.77
2024-01-26T07:56:26.482Z,9.35
2024-01-26T07:58:53.111Z,9.75
2024-01-26T08:01:19.981Z,11.65
2024-01-26T08:03:47.229Z,9.70
2024-01-26T08:06:16.643Z,10.18
2024-01-26T08:08:43.198Z,9.70
2024-01-26T08:11:11.756Z,9.00
2024-01-26T08:13:38.468Z,8.65
2024-01-26T08:16:05.426Z,8.52
2024-01-26T08:18:32.185Z,10.38
2024-01-26T08:20:58.983Z,6.82
2024-01-26T08:23:25.896Z,9.23
2024-01-26T08:25:52.627Z,9.63
2024-01-26T08:28:19.332Z,6.75
2024-01-26T08:30:46.059Z,8.73
2024-01-26T08:33:12.675Z,6.85
2024-01-26T08:35:39.445Z,7.95
2024-01-26T08:38:06.069Z,6.72
2024-01-26T08:40:32.570Z,6.40
2024-01-26T08:42:59.099Z,5.45
2024-01-26T08:45:25.831Z,4.75
2024-01-26T08:47:52.973Z,3.85
2024-01-26T08:50:19.664Z,3.85
2024-01-26T08:52:46.281Z,3.65
2024-01-26T08:55:12.903Z,3.78
2024-01-26T08:57:39.554Z,3.97
2024-01-26T09:00:10.441Z,3.70
2024-01-26T09:02:37.308Z,2.85
2024-01-26T09:05:03.982Z,5.15
2024-01-26T09:07:30.497Z,4.70
2024-01-26T09:09:56.950Z,4.30
2024-01-26T09:12:23.482Z,3.78
2024-01-26T09:14:50.058Z,3.80
2024-01-26T09:17:17.425Z,3.40
2024-01-26T09:19:44.082Z,3.22
2024-01-26T09:22:10.624Z,2.90
2024-01-26T09:24:37.170Z,2.80
2024-01-26T09:27:03.869Z,3.22
2024-01-26T09:29:30.350Z,2.80
2024-01-26T09:31:58.199Z,2.60
2024-01-26T09:34:25.150Z,2.70
2024-01-26T09:36:53.542Z,2.33
2024-01-26T09:39:22.963Z,2.47
2024-01-26T09:41:49.732Z,2.50
2024-01-26T09:44:16.230Z,2.28
2024-01-26T09:46:44.360Z,2.60
2024-01-26T09:49:11.125Z,2.30
2024-01-26T09:51:38.212Z,2.08
2024-01-26T09:54:06.179Z,2.25
2024-01-26T09:56:34.623Z,2.60
2024-01-26T09:59:02.435Z,2.20
2024-01-26T10:01:29.220Z,2.10
2024-01-26T10:03:57.430Z,2.53
2024-01-26T10:06:24.329Z,2.67
2024-01-26T10:08:50.910Z,2.70
2024-01-26T10:11:17.460Z,2.88
2024-01-26T10:13:44.002Z,2.38
2024-01-26T10:16:14.065Z,1.80
2024-01-26T10:18:41.970Z,2.78
2024-01-26T10:21:09.244Z,2.50
2024-01-26T10:23:36.426Z,2.30
2024-01-26T10:26:04.025Z,2.53
2024-01-26T10:28:30.685Z,2.10
2024-01-26T10:30:57.237Z,2.65
2024-01-26T10:33:27.141Z,2.53
2024-01-26T10:38:26.454Z,2.13
2024-01-26T10:40:59.672Z,2.88
2024-01-26T10:43:26.558Z,2.35
2024-01-26T10:45:53.742Z,2.08
2024-01-26T10:48:20.776Z,2.47
2024-01-26T10:50:48.374Z,2.40
2024-01-26T10:53:15.995Z,2.40
2024-01-26T10:55:43.902Z,1.95
2024-01-26T10:58:11.075Z,2.20
2024-01-26T11:00:37.786Z,2.72
2024-01-26T11:03:04.908Z,2.50
2024-01-26T11:05:32.062Z,2.40
2024-01-26T11:07:59.562Z,2.00
2024-01-26T11:10:27.321Z,2.28
2024-01-26T11:13:02.146Z,2.30
2024-01-26T11:15:29.674Z,1.98
2024-01-26T11:18:00.262Z,2.53
2024-01-26T11:20:31.666Z,2.40
2024-01-26T11:23:15.967Z,2.53
2024-01-26T11:25:44.576Z,2.55
2024-01-26T11:28:12.187Z,2.65
2024-01-26T11:30:38.907Z,2.67
2024-01-26T11:33:19.202Z,2.38
2024-01-26T11:35:46.962Z,2.33
2024-01-26T11:38:14.282Z,2.45
2024-01-26T11:40:41.169Z,2.05
2024-01-26T11:43:08.321Z,2.58
2024-01-26T11:45:46.386Z,2.40
2024-01-26T11:48:14.881Z,2.75
2024-01-26T11:50:45.998Z,2.55
2024-01-26T11:53:17.738Z,2.88
2024-01-26T11:55:45.379Z,3.20
2024-01-26T11:58:12.555Z,3.08
2024-01-26T12:00:40.215Z,2.72
2024-01-26T12:03:09.520Z,3.55
2024-01-26T12:05:37.446Z,2.85
2024-01-26T12:08:06.160Z,2.80
2024-01-26T12:10:36.301Z,2.60
2024-01-26T12:13:04.576Z,2.42
2024-01-26T12:15:33.424Z,2.55
2024-01-26T12:20:27.431Z,2.47
2024-01-26T12:22:57.194Z,3.17
2024-01-26T12:25:28.642Z,2.80
2024-01-26T12:27:55.787Z,2.58
2024-01-26T12:30:22.577Z,3.05
2024-01-26T12:32:49.377Z,2.97
2024-01-26T12:35:16.054Z,2.95
2024-01-26T12:37:45.158Z,2.97
2024-01-26T12:40:12.262Z,2.28
2024-01-26T12:42:39.451Z,2.78
2024-01-26T12:45:06.215Z,2.70
2024-01-26T12:47:33.011Z,2.80
2024-01-26T12:49:59.742Z,2.40
2024-01-26T12:52:26.324Z,2.70
2024-01-26T12:54:56.253Z,2.72
2024-01-26T12:59:49.951Z,2.42
2024-01-26T13:02:16.801Z,2.70
2024-01-26T13:04:44.167Z,1.90
2024-01-26T13:07:11.323Z,2.72
2024-01-26T13:09:37.917Z,2.53
2024-01-26T13:12:05.102Z,2.63
2024-01-26T13:14:31.675Z,2.80
2024-01-26T13:16:58.215Z,2.65
2024-01-26T13:19:24.884Z,2.30
2024-01-26T13:21:51.634Z,2.15
2024-01-26T13:24:18.753Z,2.10
2024-01-26T13:26:46.052Z,2.67
2024-01-26T13:29:12.926Z,2.45
2024-01-26T13:31:39.680Z,2.38
2024-01-26T13:34:06.321Z,2.42
2024-01-26T13:36:32.933Z,1.88
2024-01-26T13:38:59.489Z,2.05
2024-01-26T13:41:26.231Z,3.05
2024-01-26T13:43:52.964Z,2.22
2024-01-26T13:46:19.785Z,2.80
2024-01-26T13:48:46.420Z,2.25
2024-01-26T13:51:13.114Z,2.38
2024-01-26T13:53:39.769Z,2.65
2024-01-26T13:56:06.621Z,2.50
2024-01-26T13:58:33.151Z,2.30
2024-01-26T14:01:00.171Z,3.00
2024-01-26T14:03:26.898Z,2.90
2024-01-26T14:05:53.795Z,2.20
2024-01-26T14:08:20.424Z,2.70
2024-01-26T14:10:46.953Z,2.28
2024-01-26T14:13:13.377Z,2.45
2024-01-26T14:15:39.880Z,2.42
2024-01-26T14:18:06.527Z,2.40
2024-01-26T14:20:35.034Z,2.50
2024-01-26T14:23:01.497Z,2.58
2024-01-26T14:25:28.013Z,2.83
2024-01-26T14:27:55.140Z,2.97
2024-01-26T14:30:23.508Z,2.30
2024-01-26T14:32:50.704Z,2.58
2024-01-26T14:35:17.305Z,2.33
2024-01-26T14:37:44.656Z,2.60
2024-01-26T14:40:14.248Z,2.47
2024-01-26T14:42:41.051Z,2.45
2024-01-26T14:45:08.464Z,3.05
2024-01-26T14:47:39.332Z,2.30
2024-01-26T14:50:10.553Z,3.08
2024-01-26T14:52:41.086Z,2.97
2024-01-26T14:55:14.789Z,2.80
2024-01-26T14:57:42.191Z,2.50
2024-01-26T15:00:09.464Z,3.50
2024-01-26T15:02:39.133Z,2.55
2024-01-26T15:05:06.451Z,2.50
2024-01-26T15:07:37.217Z,2.28
2024-01-26T15:10:06.109Z,2.60
2024-01-26T15:12:32.576Z,2.92
2024-01-26T15:14:59.237Z,2.53
2024-01-26T15:17:25.719Z,3.10
2024-01-26T15:19:53.800Z,2.70
2024-01-26T15:22:20.444Z,2.72
2024-01-26T15:24:47.023Z,2.33
2024-01-26T15:27:13.521Z,4.50
2024-01-26T15:29:39.998Z,2.63
2024-01-26T15:32:06.933Z,2.85
2024-01-26T15:34:36.397Z,2.53
2024-01-26T15:37:03.477Z,2.92
2024-01-26T15:39:29.964Z,3.25
2024-01-26T15:41:56.535Z,3.10
2024-01-26T15:44:23.414Z,2.83
2024-01-26T15:46:49.891Z,3.00
2024-01-26T15:49:16.674Z,2.80
2024-01-26T15:51:43.203Z,2.92
2024-01-26T15:54:10.204Z,2.95
2024-01-26T15:56:39.336Z,2.60
2024-01-26T15:59:05.954Z,2.97
2024-01-26T16:01:32.759Z,4.43
2024-01-26T16:03:59.430Z,3.08
2024-01-26T16:06:26.250Z,3.30
2024-01-26T16:08:52.811Z,3.35
2024-01-26T16:11:20.189Z,3.10
2024-01-26T16:13:47.247Z,3.28
2024-01-26T16:16:14.213Z,2.97
2024-01-26T16:18:40.798Z,2.72
2024-01-26T16:21:07.443Z,2.72
2024-01-26T16:23:33.959Z,3.08
2024-01-26T16:26:00.452Z,2.63
2024-01-26T16:28:26.958Z,3.22
2024-01-26T16:30:53.460Z,2.60
2024-01-26T16:33:20.178Z,2.63
2024-01-26T16:35:47.006Z,2.83
2024-01-26T16:38:14.202Z,2.80
2024-01-26T16:40:40.839Z,3.03
2024-01-26T16:43:07.460Z,2.60
2024-01-26T16:45:34.025Z,3.45
2024-01-26T16:48:00.924Z,3.22
2024-01-26T16:50:27.511Z,3.05
2024-01-26T16:52:53.990Z,3.70
2024-01-26T16:55:20.628Z,3.72
2024-01-26T16:57:47.258Z,3.53
2024-01-26T17:00:14.846Z,3.20
2024-01-26T17:02:41.446Z,3.33
2024-01-26T17:05:08.129Z,3.65
2024-01-26T17:07:35.733Z,3.53
2024-01-26T17:10:02.478Z,2.88
2024-01-26T17:12:29.029Z,3.15
2024-01-26T17:14:55.649Z,3.28
2024-01-26T17:17:23.155Z,3.50
2024-01-26T17:19:52.734Z,4.03
2024-01-26T17:22:19.804Z,5.43
2024-01-26T17:24:46.443Z,3.63
2024-01-26T17:27:13.083Z,3.83
2024-01-26T17:29:39.628Z,3.03
2024-01-26T17:32:06.397Z,4.95
2024-01-26T17:34:33.957Z,3.78
2024-01-26T17:37:00.677Z,4.05
2024-01-26T17:39:27.355Z,3.45
2024-01-26T17:41:56.188Z,3.22
2024-01-26T17:44:25.312Z,3.15
2024-01-26T17:46:51.841Z,2.88
2024-01-26T17:49:18.484Z,3.65
2024-01-26T17:51:45.215Z,3.03
2024-01-26T17:54:11.678Z,3.28
2024-01-26T17:56:38.166Z,3.38
2024-01-26T17:59:04.600Z,2.50
2024-01-26T18:01:31.217Z,3.03
2024-01-26T18:03:59.573Z,3.13
2024-01-26T18:06:27.039Z,3.90
2024-01-26T18:08:53.684Z,3.67
2024-01-26T18:11:20.207Z,3.20
2024-01-26T18:13:46.717Z,3.50
2024-01-26T18:16:13.222Z,3.20
2024-01-26T18:18:40.186Z,3.70
2024-01-26T18:21:06.772Z,3.47
2024-01-26T18:23:33.386Z,4.20
2024-01-26T18:25:59.986Z,3.67
2024-01-26T18:28:26.509Z,4.45
2024-01-26T18:30:53.016Z,4.07
2024-01-26T18:33:19.898Z,3.60
2024-01-26T18:35:46.764Z,4.50
2024-01-26T18:38:13.297Z,3.08
2024-01-26T18:40:39.820Z,3.40
2024-01-26T18:43:06.265Z,2.83
2024-01-26T18:45:32.815Z,3.47
2024-01-26T18:47:59.474Z,4.28
2024-01-26T18:50:26.132Z,3.08
2024-01-26T18:52:52.785Z,3.72
2024-01-26T18:55:19.581Z,3.25
2024-01-26T18:57:46.110Z,4.35
2024-01-26T19:00:13.515Z,3.65
2024-01-26T19:02:40.653Z,3.50
2024-01-26T19:05:10.782Z,5.25
2024-01-26T19:07:37.748Z,3.13
2024-01-26T19:10:04.992Z,3.05
2024-01-26T19:12:31.776Z,3.50
2024-01-26T19:14:58.553Z,3.40
2024-01-26T19:17:25.366Z,3.92
2024-01-26T19:19:51.940Z,3.70
2024-01-26T19:22:18.520Z,3.75
2024-01-26T19:24:46.006Z,3.80
2024-01-26T19:27:12.942Z,4.72
2024-01-26T19:29:41.255Z,4.32
2024-01-26T19:32:07.867Z,4.95
2024-01-26T19:34:35.170Z,5.50
2024-01-26T19:37:05.690Z,5.05
2024-01-26T19:39:32.215Z,4.53
2024-01-26T19:41:59.172Z,4.70
2024-01-26T19:44:25.786Z,4.80
2024-01-26T19:46:52.318Z,5.18
2024-01-26T19:49:19.070Z,5.18
2024-01-26T19:51:50.309Z,5.20
2024-01-26T19:54:16.888Z,4.55
2024-01-26T19:56:43.514Z,4.75
2024-01-26T19:59:10.051Z,4.55
2024-01-26T20:01:36.557Z,5.38
2024-01-26T20:04:03.238Z,4.63
2024-01-26T20:06:29.833Z,5.40
2024-01-26T20:08:58.131Z,5.63
2024-01-26T20:11:24.678Z,4.85
2024-01-26T20:13:51.166Z,4.00
2024-01-26T20:16:17.947Z,4.18
2024-01-26T20:18:44.651Z,4.50
2024-01-26T20:21:14.483Z,4.38
2024-01-26T20:23:43.643Z,4.80
2024-01-26T20:26:10.873Z,4.32
2024-01-26T20:28:39.124Z,5.55
2024-01-26T20:31:08.749Z,7.75
2024-01-26T20:33:37.481Z,4.93
2024-01-26T20:36:04.424Z,6.95
2024-01-26T20:38:31.876Z,6.88
2024-01-26T20:40:58.442Z,6.72
2024-01-26T20:43:26.877Z,5.25
2024-01-26T20:45:53.667Z,4.53
2024-01-26T20:48:20.585Z,5.10
2024-01-26T20:50:47.525Z,4.78
2024-01-26T20:53:14.114Z,4.50
2024-01-26T20:55:40.602Z,3.92
2024-01-26T20:58:08.043Z,4.43
2024-01-26T21:00:34.730Z,4.13
2024-01-26T21:03:01.407Z,4.68
2024-01-26T21:05:32.676Z,4.60
2024-01-26T21:08:00.107Z,5.30
2024-01-26T21:10:27.033Z,4.57
2024-01-26T21:12:57.494Z,4.60
2024-01-26T21:15:25.365Z,4.55
2024-01-26T21:17:52.088Z,4.50
2024-01-26T21:20:18.988Z,4.50
2024-01-26T21:22:49.750Z,4.70
2024-01-26T21:25:16.582Z,3.95
2024-01-26T21:27:43.065Z,4.68
2024-01-26T21:30:10.193Z,4.10
2024-01-26T21:32:36.967Z,3.83
2024-01-26T21:35:05.179Z,4.57
2024-01-26T21:37:32.080Z,4.03
2024-01-26T21:39:58.627Z,4.30
2024-01-26T21:42:26.412Z,5.40
2024-01-26T21:44:53.311Z,5.13
2024-01-26T21:47:19.956Z,5.78
2024-01-26T21:49:46.761Z,4.68
2024-01-26T21:52:15.311Z,3.92
2024-01-26T21:54:41.976Z,4.80
2024-01-26T21:57:08.713Z,3.72
2024-01-26T21:59:35.247Z,3.90
2024-01-26T22:02:01.774Z,4.15
2024-01-26T22:04:29.412Z,4.07
2024-01-26T22:06:56.578Z,4.00
2024-01-26T22:09:23.342Z,4.70
2024-01-26T22:11:49.961Z,3.65
2024-01-26T22:14:17.992Z,4.00
2024-01-26T22:16:44.501Z,4.13
2024-01-26T22:19:11.201Z,3.78
2024-01-26T22:21:37.830Z,3.75
2024-01-26T22:24:04.782Z,3.97
2024-01-26T22:26:31.320Z,4.53
2024-01-26T22:28:59.810Z,4.75
2024-01-26T22:31:26.420Z,4.22
2024-01-26T22:33:53.267Z,3.85
2024-01-26T22:36:20.325Z,4.80
2024-01-26T22:38:53.605Z,4.35
2024-01-26T22:41:20.290Z,4.72
2024-01-26T22:43:46.832Z,3.78
2024-01-26T22:46:13.764Z,3.83
2024-01-26T22:48:40.509Z,4.82
2024-01-26T22:51:07.341Z,4.28
2024-01-26T22:53:33.848Z,3.63
2024-01-26T22:56:01.106Z,3.88
2024-01-26T22:58:27.614Z,3.63
2024-01-26T23:00:54.163Z,4.35
2024-01-26T23:03:20.895Z,4.22
2024-01-26T23:05:49.218Z,4.10
2024-01-26T23:08:16.018Z,4.10
2024-01-26T23:10:42.539Z,4.10
2024-01-26T23:13:09.102Z,3.55
2024-01-26T23:15:35.635Z,3.92
2024-01-26T23:18:02.540Z,3.60
2024-01-26T23:20:29.136Z,3.60
2024-01-26T23:22:55.637Z,4.10
2024-01-26T23:25:22.144Z,3.40
2024-01-26T23:27:48.840Z,4.43
2024-01-26T23:30:15.486Z,3.78
2024-01-26T23:32:45.335Z,3.70
2024-01-26T23:35:12.888Z,4.85
2024-01-26T23:37:39.485Z,4.32
2024-01-26T23:40:07.315Z,3.50
2024-01-26T23:42:34.007Z,3.70
2024-01-26T23:45:00.858Z,3.58
2024-01-26T23:47:27.561Z,3.20
2024-01-26T23:49:54.305Z,3.60
2024-01-26T23:52:21.501Z,4.18
2024-01-26T23:54:48.023Z,3.90
2024-01-26T23:57:15.417Z,3.70
2024-01-26T23:59:42.077Z,3.45
